Time;durP1;ratioP1;P1;durP2;ratioP2;P2;SDS_P1;SDS_P2;PMS_P1;PMS_P2;Temp;Humidity;BMP_temperature;BMP_pressure;BME280_temperature;BME280_humidity;BME280_pressure;Samples;Min_cycle;Max_cycle;Signal;HPM_P1;HPM_P2
2022/05/06 00:00:19;;;;;;;5.80;3.07;;;12.00;99.90;;;;;;5137643;27;20658;-67
2022/05/06 00:02:45;;;;;;;4.83;2.90;;;11.90;99.90;;;;;;5137869;27;20209;-67
2022/05/06 00:05:11;;;;;;;4.60;3.37;;;11.90;99.90;;;;;;5152061;27;20519;-68
2022/05/06 00:07:37;;;;;;;4.00;3.07;;;11.90;99.90;;;;;;5158651;27;20256;-68
2022/05/06 00:10:05;;;;;;;4.97;3.10;;;11.80;99.90;;;;;;5158604;27;20205;-67
2022/05/06 00:12:31;;;;;;;4.50;3.00;;;11.80;99.90;;;;;;5157803;27;20243;-68
2022/05/06 00:14:57;;;;;;;5.17;2.90;;;12.00;99.90;;;;;;5158184;27;20252;-69
2022/05/06 00:17:23;;;;;;;6.97;2.93;;;11.90;99.90;;;;;;5158608;27;20272;-69
2022/05/06 00:19:48;;;;;;;5.53;2.90;;;11.90;99.90;;;;;;5159151;27;20482;-67
2022/05/06 00:22:14;;;;;;;3.33;2.83;;;12.00;99.90;;;;;;5147206;27;20198;-67
2022/05/06 00:24:40;;;;;;;4.93;3.57;;;11.90;99.90;;;;;;5119297;28;20674;-69
2022/05/06 00:27:06;;;;;;;3.93;2.97;;;12.10;99.90;;;;;;5118247;28;20166;-69
2022/05/06 00:29:33;;;;;;;3.30;2.93;;;12.20;99.90;;;;;;5116746;28;20216;-67
2022/05/06 00:31:59;;;;;;;7.37;3.57;;;12.20;99.90;;;;;;5116408;27;20177;-68
2022/05/06 00:34:26;;;;;;;4.20;3.13;;;12.10;99.90;;;;;;5136644;27;20571;-68
2022/05/06 00:36:52;;;;;;;5.73;3.83;;;12.20;99.90;;;;;;5136907;27;20158;-69
2022/05/06 00:39:18;;;;;;;3.23;2.87;;;12.30;99.90;;;;;;5136748;27;20165;-68
2022/05/06 00:41:43;;;;;;;3.97;3.10;;;12.20;99.90;;;;;;5136925;27;20177;-68
2022/05/06 00:44:09;;;;;;;7.20;3.60;;;12.10;99.90;;;;;;5137371;27;20201;-69
2022/05/06 00:46:38;;;;;;;5.60;2.87;;;12.20;99.90;;;;;;5138672;27;20181;-67
2022/05/06 00:49:09;;;;;;;6.13;2.73;;;12.20;99.90;;;;;;5120550;27;20256;-66
2022/05/06 00:51:35;;;;;;;5.27;3.17;;;12.20;99.90;;;;;;5137943;27;20157;-67
2022/05/06 00:54:01;;;;;;;6.17;3.30;;;12.20;99.90;;;;;;5145555;27;20169;-67
2022/05/06 00:56:27;;;;;;;3.20;2.90;;;12.20;99.90;;;;;;5148001;27;20158;-68
2022/05/06 00:58:53;;;;;;;7.30;3.60;;;12.10;99.90;;;;;;5139756;27;20173;-67
2022/05/06 01:01:19;;;;;;;4.67;3.20;;;12.30;99.90;;;;;;5137737;27;20177;-67
2022/05/06 01:03:45;;;;;;;5.43;3.73;;;12.20;99.90;;;;;;5137286;27;20689;-69
2022/05/06 01:06:13;;;;;;;4.80;3.70;;;12.10;99.90;;;;;;5138143;27;20197;-67
2022/05/06 01:08:40;;;;;;;4.80;3.57;;;12.20;99.90;;;;;;5115186;27;20285;-68
2022/05/06 01:11:06;;;;;;;8.43;3.30;;;12.30;99.90;;;;;;5116970;28;20182;-68
2022/05/06 01:13:43;;;;;;;7.17;3.80;;;12.40;99.90;;;;;;5118595;28;20176;-67
2022/05/06 01:16:09;;;;;;;7.67;3.80;;;12.30;99.90;;;;;;5118404;28;20249;-68
2022/05/06 01:18:35;;;;;;;5.27;4.00;;;12.50;99.90;;;;;;5099927;28;20585;-68
2022/05/06 01:21:02;;;;;;;6.93;3.80;;;12.40;99.90;;;;;;5117697;28;20176;-67
2022/05/06 01:23:28;;;;;;;4.27;3.13;;;12.70;99.90;;;;;;5100572;28;20177;-67
2022/05/06 01:25:54;;;;;;;5.30;3.23;;;12.70;99.90;;;;;;5120824;28;20211;-67
2022/05/06 01:28:22;;;;;;;7.33;3.67;;;12.70;99.90;;;;;;5122751;28;20162;-67
2022/05/06 01:30:48;;;;;;;7.40;4.13;;;12.80;99.90;;;;;;5125115;28;20154;-67
2022/05/06 01:33:16;;;;;;;6.17;3.40;;;12.80;99.90;;;;;;5121128;28;20185;-67
2022/05/06 01:35:46;;;;;;;5.83;3.27;;;12.80;99.90;;;;;;5103897;28;20174;-69
2022/05/06 01:38:36;;;;;;;4.83;3.17;;;12.80;99.90;;;;;;5120799;28;20158;-67
2022/05/06 01:41:10;;;;;;;5.00;3.60;;;12.90;99.90;;;;;;5123151;28;20166;-67
2022/05/06 01:43:42;;;;;;;3.83;2.90;;;12.80;99.90;;;;;;5122558;28;20162;-68
2022/05/06 01:46:10;;;;;;;5.50;3.50;;;12.90;99.90;;;;;;5123114;28;20190;-67
2022/05/06 01:48:36;;;;;;;4.53;3.53;;;12.90;99.90;;;;;;5098554;28;20194;-67
2022/05/06 01:51:02;;;;;;;3.63;3.00;;;12.90;99.90;;;;;;5084883;28;20307;-67
2022/05/06 01:53:28;;;;;;;5.27;3.40;;;12.90;99.90;;;;;;5105166;28;20174;-67
2022/05/06 01:55:54;;;;;;;3.17;2.57;;;12.80;99.90;;;;;;5105241;28;20159;-68
2022/05/06 01:58:20;;;;;;;6.30;2.90;;;12.80;99.90;;;;;;5103541;28;20170;-68
2022/05/06 02:00:46;;;;;;;7.40;3.40;;;12.80;99.90;;;;;;5087334;28;20234;-67
2022/05/06 02:05:16;;;;;;;4.23;2.83;;;12.70;99.90;;;;;;5116799;28;20267;-68
2022/05/06 02:05:57;;;;;;;5.03;3.10;;;12.70;99.90;;;;;;5121806;28;20214;-71
2022/05/06 02:08:23;;;;;;;6.87;3.10;;;12.70;99.90;;;;;;5126245;28;20178;-68
2022/05/06 02:10:49;;;;;;;7.67;3.67;;;12.60;99.90;;;;;;5125068;28;20245;-68
2022/05/06 02:13:15;;;;;;;6.90;3.30;;;12.50;99.90;;;;;;5126115;28;20189;-67
2022/05/06 02:15:41;;;;;;;14.47;4.13;;;12.50;99.90;;;;;;5107861;28;20171;-66
2022/05/06 02:18:09;;;;;;;6.60;2.90;;;12.50;99.90;;;;;;5106422;28;20170;-68
2022/05/06 02:20:35;;;;;;;5.37;3.03;;;12.50;99.90;;;;;;5124658;28;20198;-67
2022/05/06 02:23:01;;;;;;;5.37;3.00;;;12.40;99.90;;;;;;5123726;28;20212;-66
2022/05/06 02:25:26;;;;;;;5.43;3.23;;;12.40;99.90;;;;;;5122329;27;20628;-66
2022/05/06 02:27:52;;;;;;;5.23;3.30;;;12.40;99.90;;;;;;5143433;27;20173;-67
2022/05/06 02:33:14;;;;;;;6.13;3.43;;;12.30;99.90;;;;;;5143732;27;20160;-66
2022/05/06 02:35:46;;;;;;;5.23;3.10;;;12.30;99.90;;;;;;5129013;28;20173;-68
2022/05/06 02:38:12;;;;;;;4.30;3.17;;;12.30;99.90;;;;;;5163242;27;20169;-67
2022/05/06 02:40:39;;;;;;;4.90;3.17;;;12.30;99.90;;;;;;5147142;28;20167;-69
2022/05/06 02:43:05;;;;;;;5.23;3.10;;;12.20;99.90;;;;;;5128318;28;20177;-68
2022/05/06 02:45:32;;;;;;;7.60;3.30;;;12.10;99.90;;;;;;5148856;27;20189;-67
2022/05/06 02:47:57;;;;;;;4.87;3.07;;;12.20;99.90;;;;;;5149367;27;20229;-69
2022/05/06 02:50:24;;;;;;;4.63;2.77;;;12.00;99.90;;;;;;5148614;27;20164;-67
2022/05/06 02:52:50;;;;;;;11.60;2.67;;;12.00;99.90;;;;;;5148122;27;20230;-66
2022/05/06 02:55:16;;;;;;;4.73;3.43;;;12.00;99.90;;;;;;5122344;28;20177;-68
2022/05/06 02:57:41;;;;;;;5.17;3.17;;;12.00;99.90;;;;;;5120442;28;20154;-68
2022/05/06 03:00:08;;;;;;;7.67;3.37;;;12.00;99.90;;;;;;5119466;28;20663;-66
2022/05/06 03:02:34;;;;;;;8.73;3.13;;;11.90;99.90;;;;;;5134008;27;20236;-67
2022/05/06 03:04:59;;;;;;;7.70;3.27;;;11.90;99.90;;;;;;5118290;28;20197;-66
2022/05/06 03:07:25;;;;;;;5.43;3.13;;;11.80;99.90;;;;;;5120136;28;20162;-66
2022/05/06 03:09:52;;;;;;;5.33;3.23;;;11.90;99.90;;;;;;5120256;28;20582;-67
2022/05/06 03:12:19;;;;;;;4.40;2.87;;;11.80;99.90;;;;;;5124760;28;20150;-66
2022/05/06 03:14:45;;;;;;;3.70;3.10;;;11.80;99.90;;;;;;5121225;28;20170;-66
2022/05/06 03:17:11;;;;;;;4.07;3.20;;;11.60;99.90;;;;;;5118612;28;20158;-67
2022/05/06 03:19:36;;;;;;;7.00;3.47;;;11.50;99.90;;;;;;5118010;28;20666;-68
2022/05/06 03:22:02;;;;;;;6.80;3.50;;;11.50;99.90;;;;;;5118082;28;20609;-66
2022/05/06 03:24:28;;;;;;;4.53;3.13;;;11.50;99.90;;;;;;5118045;28;20200;-68
2022/05/06 03:26:54;;;;;;;5.50;3.50;;;11.50;99.90;;;;;;5118251;28;20215;-67
2022/05/06 03:29:19;;;;;;;6.03;3.00;;;11.40;99.90;;;;;;5117838;28;20457;-67
2022/05/06 03:31:45;;;;;;;5.27;2.93;;;11.40;99.90;;;;;;5117957;28;20173;-67
2022/05/06 03:34:11;;;;;;;10.97;3.40;;;11.40;99.90;;;;;;5117558;28;20155;-67
2022/05/06 03:36:37;;;;;;;5.27;3.43;;;11.40;99.90;;;;;;5117632;28;20211;-66
2022/05/06 03:39:03;;;;;;;5.50;3.27;;;11.40;99.90;;;;;;5117474;28;20166;-66
2022/05/06 03:41:29;;;;;;;5.07;3.00;;;11.20;99.90;;;;;;5117824;28;20175;-67
2022/05/06 03:43:55;;;;;;;6.90;3.30;;;11.20;99.90;;;;;;5118008;28;20284;-67
2022/05/06 03:46:20;;;;;;;9.63;3.10;;;11.20;99.90;;;;;;5119686;28;20212;-67
2022/05/06 03:48:46;;;;;;;7.07;3.83;;;11.10;99.90;;;;;;5131453;28;20166;-65
2022/05/06 03:51:21;;;;;;;4.43;3.13;;;11.10;99.90;;;;;;5120453;27;20266;-67
2022/05/06 03:53:51;;;;;;;8.23;3.00;;;11.20;99.90;;;;;;5137910;27;20154;-65
2022/05/06 03:56:17;;;;;;;5.73;3.67;;;11.10;99.90;;;;;;5137377;27;20165;-66
2022/05/06 03:58:43;;;;;;;10.60;3.20;;;11.10;99.90;;;;;;5137409;27;20158;-67
2022/05/06 04:01:09;;;;;;;3.63;3.27;;;11.00;99.90;;;;;;5137686;27;20186;-66
2022/05/06 04:03:35;;;;;;;9.27;3.10;;;10.90;99.90;;;;;;5137514;27;20228;-66
2022/05/06 04:06:01;;;;;;;4.77;3.30;;;10.80;99.90;;;;;;5137278;27;20197;-66
2022/05/06 04:08:27;;;;;;;6.20;3.87;;;11.00;99.90;;;;;;5137055;27;20166;-67
2022/05/06 04:10:53;;;;;;;6.97;3.90;;;10.90;99.90;;;;;;5137090;27;20165;-66
2022/05/06 04:13:18;;;;;;;6.57;3.57;;;10.90;99.90;;;;;;5140797;27;20166;-66
2022/05/06 04:15:48;;;;;;;6.00;3.93;;;10.90;99.90;;;;;;5125563;27;20169;-67
2022/05/06 04:18:14;;;;;;;6.27;4.03;;;11.00;99.90;;;;;;5145861;27;20502;-66
2022/05/06 04:23:30;;;;;;;5.83;3.53;;;10.90;99.90;;;;;;5139385;27;20222;-66
2022/05/06 04:25:56;;;;;;;8.13;4.27;;;10.90;99.90;;;;;;5120623;27;20201;-66
2022/05/06 04:28:23;;;;;;;5.07;3.73;;;10.80;99.90;;;;;;5139461;27;20166;-68
2022/05/06 04:30:49;;;;;;;4.30;3.47;;;10.80;99.90;;;;;;5140409;27;20173;-66
2022/05/06 04:33:14;;;;;;;5.67;3.80;;;10.80;99.90;;;;;;5138034;27;20165;-66
2022/05/06 04:35:40;;;;;;;6.27;3.63;;;10.70;99.90;;;;;;5140671;27;20169;-66
2022/05/06 04:38:06;;;;;;;6.10;3.47;;;10.80;99.90;;;;;;5141342;27;20168;-66
2022/05/06 04:40:33;;;;;;;5.60;4.17;;;10.80;99.90;;;;;;5136504;27;20531;-66
2022/05/06 04:43:00;;;;;;;4.50;3.60;;;10.90;99.90;;;;;;5132051;27;20160;-67
2022/05/06 04:45:26;;;;;;;5.33;4.10;;;11.00;99.90;;;;;;5137165;27;20204;-66
2022/05/06 04:47:52;;;;;;;12.47;4.23;;;11.10;99.90;;;;;;5136289;27;20168;-67
2022/05/06 04:50:18;;;;;;;4.60;3.47;;;11.20;99.90;;;;;;5136355;27;20240;-66
2022/05/06 04:52:43;;;;;;;10.47;3.50;;;11.20;99.90;;;;;;5136209;27;20154;-67
2022/05/06 04:55:09;;;;;;;6.53;3.70;;;11.10;99.90;;;;;;5117748;27;20612;-66
2022/05/06 04:57:35;;;;;;;9.10;4.07;;;11.30;99.90;;;;;;5136670;27;20496;-66
2022/05/06 05:00:01;;;;;;;6.30;4.17;;;11.40;99.90;;;;;;5136218;27;20164;-67
2022/05/06 05:02:27;;;;;;;5.50;3.63;;;11.50;99.90;;;;;;5136144;27;20221;-67
2022/05/06 05:04:57;;;;;;;5.07;3.23;;;11.50;99.90;;;;;;5135887;27;20219;-67
2022/05/06 05:07:23;;;;;;;5.97;3.50;;;11.60;99.90;;;;;;5135031;27;20512;-66
2022/05/06 05:09:49;;;;;;;7.03;4.10;;;11.80;99.90;;;;;;5135191;27;20177;-65
2022/05/06 05:12:15;;;;;;;5.83;3.57;;;11.70;99.90;;;;;;5136333;27;20173;-66
2022/05/06 05:14:41;;;;;;;7.90;3.97;;;11.80;99.90;;;;;;5136199;27;20589;-67
2022/05/06 05:17:11;;;;;;;10.70;4.03;;;11.70;99.90;;;;;;5136687;27;20190;-67
2022/05/06 05:19:37;;;;;;;6.13;3.87;;;11.90;99.90;;;;;;5136140;27;20153;-66
2022/05/06 05:22:04;;;;;;;10.17;3.83;;;11.90;99.90;;;;;;5135477;27;20168;-66
2022/05/06 05:24:30;;;;;;;8.97;3.70;;;11.90;99.90;;;;;;5135761;27;20213;-65
2022/05/06 05:26:57;;;;;;;8.53;3.30;;;11.80;99.90;;;;;;5136411;27;20189;-66
2022/05/06 05:29:23;;;;;;;6.93;3.63;;;11.80;99.90;;;;;;5135885;27;20162;-65
2022/05/06 05:31:50;;;;;;;6.67;3.57;;;11.80;99.90;;;;;;5135825;27;20165;-67
2022/05/06 05:34:15;;;;;;;5.77;3.47;;;12.00;99.90;;;;;;5135972;27;20230;-65
2022/05/06 05:36:41;;;;;;;8.50;3.37;;;12.00;99.90;;;;;;5135620;27;20163;-65
2022/05/06 05:39:06;;;;;;;8.87;3.57;;;12.00;99.90;;;;;;5135702;27;20203;-66
2022/05/06 05:41:33;;;;;;;6.87;3.90;;;12.00;99.90;;;;;;5135490;27;20509;-67
2022/05/06 05:49:28;;;;;;;8.77;3.30;;;12.20;99.90;;;;;;5135510;27;20623;-66
2022/05/06 05:51:54;;;;;;;8.43;3.80;;;12.20;99.90;;;;;;5135554;27;20158;-67
2022/05/06 05:54:20;;;;;;;6.37;3.57;;;12.20;99.90;;;;;;5117085;27;20182;-65
2022/05/06 05:56:45;;;;;;;6.73;3.67;;;12.20;99.90;;;;;;5135082;27;20229;-65
2022/05/06 05:59:11;;;;;;;4.60;3.40;;;12.30;99.90;;;;;;5136941;27;20170;-66
2022/05/06 06:01:37;;;;;;;6.83;3.87;;;12.50;99.90;;;;;;5136388;27;20177;-66
2022/05/06 06:04:03;;;;;;;9.17;3.37;;;12.70;99.90;;;;;;5134649;27;20229;-66
2022/05/06 06:06:29;;;;;;;7.27;3.50;;;12.60;99.90;;;;;;5135054;27;20288;-67
2022/05/06 06:08:54;;;;;;;6.73;4.10;;;12.70;99.90;;;;;;5116998;27;20261;-67
2022/05/06 06:11:20;;;;;;;7.37;3.57;;;12.70;99.90;;;;;;5134650;27;20158;-68
2022/05/06 06:13:46;;;;;;;8.43;3.93;;;12.60;99.90;;;;;;5134763;27;20162;-66
2022/05/06 06:16:12;;;;;;;9.07;3.60;;;12.80;99.90;;;;;;5135606;27;20165;-67
2022/05/06 06:18:37;;;;;;;5.00;3.57;;;12.70;99.90;;;;;;5134452;27;20612;-67
2022/05/06 06:21:03;;;;;;;5.93;3.57;;;12.80;99.90;;;;;;5134710;27;20170;-65
2022/05/06 06:23:31;;;;;;;5.83;3.80;;;12.90;99.90;;;;;;5135181;27;20205;-67
2022/05/06 06:25:57;;;;;;;8.47;3.60;;;12.90;99.90;;;;;;5134929;27;20684;-67
2022/05/06 06:28:23;;;;;;;5.23;3.83;;;13.00;99.90;;;;;;5135499;27;20162;-66
2022/05/06 06:30:49;;;;;;;4.97;3.60;;;12.90;99.90;;;;;;5135208;27;20261;-66
2022/05/06 06:33:16;;;;;;;6.43;3.87;;;12.90;99.90;;;;;;5135419;27;20161;-66
2022/05/06 06:35:41;;;;;;;7.43;3.50;;;13.10;99.90;;;;;;5135702;27;20546;-69
2022/05/06 06:38:07;;;;;;;5.47;3.63;;;13.40;99.90;;;;;;5136838;27;20165;-65
2022/05/06 06:40:33;;;;;;;5.10;3.80;;;13.60;99.90;;;;;;5136784;28;20158;-67
2022/05/06 06:43:02;;;;;;;6.93;3.83;;;13.50;99.90;;;;;;5138095;28;20165;-66
2022/05/06 06:45:27;;;;;;;8.50;4.20;;;13.30;99.90;;;;;;5145350;28;20260;-68
2022/05/06 06:47:53;;;;;;;11.80;4.07;;;13.20;99.90;;;;;;5144695;28;20172;-67
2022/05/06 06:50:19;;;;;;;9.10;3.97;;;13.40;99.90;;;;;;5136729;28;20235;-67
2022/05/06 06:52:45;;;;;;;6.27;3.93;;;13.40;99.90;;;;;;5134991;28;20244;-65
2022/05/06 06:55:11;;;;;;;9.77;4.07;;;13.60;99.90;;;;;;5116079;28;20601;-66
2022/05/06 06:57:37;;;;;;;9.53;4.20;;;13.60;99.90;;;;;;5134641;28;20232;-68
2022/05/06 07:00:03;;;;;;;12.73;4.37;;;13.60;99.90;;;;;;5134809;28;20169;-66
2022/05/06 07:02:29;;;;;;;5.23;3.77;;;13.70;99.90;;;;;;5134774;28;20233;-67
2022/05/06 07:04:55;;;;;;;11.30;4.30;;;13.80;99.90;;;;;;5134950;28;20270;-66
2022/05/06 07:12:49;;;;;;;6.13;4.03;;;14.20;99.90;;;;;;5135365;28;20165;-66
2022/05/06 07:15:15;;;;;;;7.10;4.00;;;14.60;99.90;;;;;;5133912;28;20169;-66
2022/05/06 07:17:40;;;;;;;8.33;4.40;;;14.50;99.90;;;;;;5134490;28;20211;-65
2022/05/06 07:20:07;;;;;;;11.97;4.70;;;14.40;99.90;;;;;;5134114;28;20550;-66
2022/05/06 07:22:32;;;;;;;12.23;5.20;;;14.20;99.90;;;;;;5134596;28;20158;-65
2022/05/06 07:24:58;;;;;;;10.80;4.23;;;14.30;99.90;;;;;;5138043;28;20269;-65
2022/05/06 07:27:23;;;;;;;6.90;4.30;;;14.50;99.90;;;;;;5134214;28;20162;-65
2022/05/06 07:29:49;;;;;;;8.87;4.40;;;14.40;99.90;;;;;;5134017;27;20169;-65
2022/05/06 07:32:15;;;;;;;7.40;4.90;;;14.60;99.90;;;;;;5138133;27;20511;-65
2022/05/06 07:34:40;;;;;;;6.03;4.17;;;14.80;99.90;;;;;;5138550;27;20186;-66
2022/05/06 07:37:06;;;;;;;5.87;4.47;;;14.90;99.90;;;;;;5132226;27;20173;-67
2022/05/06 07:39:32;;;;;;;6.87;4.40;;;15.10;99.90;;;;;;5150062;27;20161;-66
2022/05/06 07:41:57;;;;;;;9.97;4.50;;;15.00;99.90;;;;;;5146812;27;20545;-67
2022/05/06 07:44:23;;;;;;;8.60;4.67;;;15.00;99.90;;;;;;5138658;27;20176;-68
2022/05/06 07:46:48;;;;;;;5.47;4.33;;;15.40;99.90;;;;;;5137565;27;20561;-66
2022/05/06 07:49:16;;;;;;;8.20;4.60;;;15.50;99.90;;;;;;5137822;27;20169;-66
2022/05/06 07:51:43;;;;;;;7.37;4.77;;;15.70;99.90;;;;;;5137327;27;20185;-67
2022/05/06 07:54:08;;;;;;;9.03;4.83;;;15.70;99.90;;;;;;5137645;27;20169;-67
2022/05/06 07:56:34;;;;;;;6.87;4.43;;;15.70;99.90;;;;;;5136856;27;20162;-66
2022/05/06 07:59:00;;;;;;;7.43;4.73;;;15.80;99.90;;;;;;5137414;27;20608;-67
2022/05/06 08:06:56;;;;;;;16.50;6.47;;;15.80;99.90;;;;;;5137161;27;20237;-65
2022/05/06 08:09:21;;;;;;;6.17;4.60;;;16.00;99.90;;;;;;5137642;27;20292;-68
2022/05/06 08:11:48;;;;;;;11.47;5.27;;;16.10;99.90;;;;;;5138748;27;20622;-66
2022/05/06 08:14:15;;;;;;;11.53;5.60;;;15.90;99.90;;;;;;5136759;27;20184;-71
2022/05/06 08:16:41;;;;;;;7.38;5.13;;;15.80;99.90;;;;;;5118963;27;20661;-66
2022/05/06 08:19:07;;;;;;;5.50;4.50;;;16.10;99.90;;;;;;5137266;27;20189;-67
2022/05/06 08:21:33;;;;;;;8.87;5.27;;;16.40;99.90;;;;;;5118525;27;20173;-66
2022/05/06 08:23:58;;;;;;;11.82;5.28;;;16.60;99.90;;;;;;5136782;27;20161;-67
2022/05/06 08:26:24;;;;;;;11.48;4.68;;;16.60;99.90;;;;;;5118024;27;20205;-65
2022/05/06 08:28:49;;;;;;;7.45;4.63;;;16.90;99.90;;;;;;5118218;27;20177;-66
2022/05/06 08:31:15;;;;;;;12.70;4.72;;;16.90;99.30;;;;;;5136409;27;20212;-66
2022/05/06 08:33:41;;;;;;;10.18;5.35;;;17.00;98.30;;;;;;5118890;27;20596;-66
2022/05/06 08:36:06;;;;;;;7.70;4.72;;;17.00;98.80;;;;;;5136487;27;20248;-66
2022/05/06 08:38:32;;;;;;;7.77;4.87;;;16.80;98.50;;;;;;5137211;27;20174;-66
2022/05/06 08:40:59;;;;;;;13.85;6.18;;;16.70;98.80;;;;;;5136279;27;20183;-67
2022/05/06 08:43:25;;;;;;;10.68;6.03;;;16.70;98.80;;;;;;5135325;27;20288;-66
2022/05/06 08:51:28;;;;;;;16.15;5.38;;;17.20;98.80;;;;;;5136163;27;20164;-67
2022/05/06 08:53:54;;;;;;;10.43;6.18;;;17.20;98.90;;;;;;5136633;27;20219;-68
2022/05/06 08:56:20;;;;;;;8.98;5.50;;;17.60;97.70;;;;;;5136563;27;20162;-66
2022/05/06 08:58:45;;;;;;;14.85;5.00;;;17.80;97.60;;;;;;5136271;27;20593;-68
2022/05/06 09:01:13;;;;;;;8.30;5.47;;;17.80;97.30;;;;;;5135935;27;20213;-67
2022/05/06 09:03:40;;;;;;;9.15;5.10;;;17.90;96.70;;;;;;5136032;27;20228;-67
2022/05/06 09:06:20;;;;;;;10.48;5.45;;;18.10;97.10;;;;;;5136401;27;20189;-66
2022/05/06 09:08:47;;;;;;;11.73;5.68;;;18.50;95.70;;;;;;5135973;27;20601;-67
2022/05/06 09:11:13;;;;;;;11.25;5.20;;;18.30;95.70;;;;;;5136275;27;20237;-66
2022/05/06 09:13:48;;;;;;;9.27;5.68;;;18.50;96.00;;;;;;5118578;27;20655;-65
2022/05/06 09:19:21;;;;;;;7.85;5.95;;;18.50;95.30;;;;;;5135648;27;20169;-67
2022/05/06 09:22:09;;;;;;;11.77;4.95;;;18.30;95.50;;;;;;5140183;27;20165;-66
2022/05/06 09:24:35;;;;;;;7.90;5.47;;;19.00;95.70;;;;;;5139829;27;20156;-65
2022/05/06 09:27:09;;;;;;;6.93;5.28;;;19.00;92.90;;;;;;5156195;27;20169;-66
2022/05/06 09:29:42;;;;;;;7.45;5.07;;;19.30;93.20;;;;;;5122542;27;20687;-66
2022/05/06 09:32:24;;;;;;;7.07;5.65;;;19.40;93.50;;;;;;5139566;27;20189;-67
2022/05/06 09:34:55;;;;;;;7.28;5.45;;;19.60;93.50;;;;;;5138389;27;20172;-66
2022/05/06 09:37:45;;;;;;;6.50;5.45;;;19.70;91.00;;;;;;5138284;27;20165;-66
2022/05/06 09:40:14;;;;;;;13.10;5.50;;;19.00;93.40;;;;;;5122941;27;20517;-67
2022/05/06 09:42:44;;;;;;;8.38;5.32;;;18.90;94.10;;;;;;5143013;27;20172;-66
2022/05/06 09:45:13;;;;;;;7.28;5.60;;;18.60;94.70;;;;;;5144261;27;20208;-66
2022/05/06 09:47:40;;;;;;;10.43;5.25;;;18.60;95.50;;;;;;5142042;27;20169;-68
2022/05/06 09:50:07;;;;;;;7.90;5.28;;;18.60;95.20;;;;;;5141058;27;20210;-67
2022/05/06 09:52:34;;;;;;;9.75;6.13;;;18.40;95.20;;;;;;5139422;27;20177;-66
2022/05/06 09:55:01;;;;;;;6.70;4.93;;;18.60;95.10;;;;;;5138578;27;20158;-67
2022/05/06 09:57:26;;;;;;;4.97;3.97;;;18.70;93.00;;;;;;5120643;27;20173;-66
2022/05/06 09:59:52;;;;;;;5.35;3.88;;;18.60;92.80;;;;;;5137397;27;20165;-65
2022/05/06 10:02:18;;;;;;;9.48;4.15;;;18.50;91.10;;;;;;5137638;27;20232;-65
2022/05/06 10:04:44;;;;;;;6.85;4.10;;;18.30;91.50;;;;;;5139461;27;20201;-66
2022/05/06 10:07:15;;;;;;;6.60;4.07;;;18.20;89.80;;;;;;5141547;27;20168;-66
2022/05/06 10:09:58;;;;;;;12.10;4.70;;;18.60;89.20;;;;;;5126125;27;20330;-67
2022/05/06 10:12:25;;;;;;;8.30;4.20;;;19.00;86.90;;;;;;5142374;27;20665;-67
2022/05/06 10:14:52;;;;;;;7.10;4.18;;;19.30;86.10;;;;;;5143019;27;20265;-66
2022/05/06 10:17:55;;;;;;;23.23;14.07;;;19.50;86.00;;;;;;5144653;27;20659;-73
2022/05/06 10:20:35;;;;;;;6.60;4.40;;;20.20;87.70;;;;;;5143000;27;20177;-67
2022/05/06 10:23:12;;;;;;;12.02;3.95;;;19.30;81.60;;;;;;5144184;27;20267;-66
2022/05/06 10:25:41;;;;;;;9.68;4.03;;;19.10;84.20;;;;;;5143783;27;20189;-65
2022/05/06 10:34:23;;;;;;;7.60;3.50;;;19.70;77.30;;;;;;5134754;27;20578;-67
2022/05/06 10:36:56;;;;;;;5.10;3.35;;;20.20;73.00;;;;;;5135028;27;20173;-67
2022/05/06 10:39:27;;;;;;;6.05;3.75;;;20.50;71.00;;;;;;5151822;27;20192;-67
2022/05/06 10:41:59;;;;;;;6.65;3.30;;;20.20;70.40;;;;;;5135434;28;20473;-68
2022/05/06 10:44:44;;;;;;;4.30;3.20;;;20.10;69.00;;;;;;5134950;28;20168;-65
2022/05/06 10:47:12;;;;;;;6.68;3.47;;;19.90;70.10;;;;;;5135507;28;20252;-66
2022/05/06 10:49:38;;;;;;;7.18;3.50;;;20.00;71.90;;;;;;5116697;28;20222;-66
2022/05/06 10:52:16;;;;;;;5.03;3.90;;;19.80;75.30;;;;;;5134692;28;20506;-66
2022/05/06 10:54:43;;;;;;;8.80;4.20;;;19.70;74.90;;;;;;5135342;28;20161;-66
2022/05/06 10:57:09;;;;;;;12.15;3.92;;;19.30;74.80;;;;;;5134316;28;20149;-67
2022/05/06 10:59:55;;;;;;;10.52;4.55;;;19.50;76.30;;;;;;5135177;28;20243;-67
2022/05/06 11:02:23;;;;;;;5.22;3.67;;;19.90;74.30;;;;;;5134414;28;20247;-65
2022/05/06 11:04:57;;;;;;;12.07;4.07;;;20.20;73.00;;;;;;5150608;27;20223;-66
2022/05/06 11:07:23;;;;;;;5.40;3.88;;;20.60;71.80;;;;;;5138773;27;20173;-65
2022/05/06 11:09:51;;;;;;;4.90;3.65;;;20.80;70.90;;;;;;5138586;27;20190;-64
2022/05/06 11:12:33;;;;;;;5.78;3.95;;;20.90;70.50;;;;;;5137956;27;20173;-67
2022/05/06 11:15:03;;;;;;;6.97;4.00;;;21.40;68.30;;;;;;5138102;27;20161;-67
2022/05/06 11:17:33;;;;;;;4.88;3.70;;;21.80;66.80;;;;;;5138076;27;20162;-67
2022/05/06 11:20:09;;;;;;;7.55;3.78;;;21.40;65.50;;;;;;5138018;27;20172;-66
2022/05/06 11:22:36;;;;;;;5.65;4.10;;;21.00;68.60;;;;;;5137862;27;20154;-67
2022/05/06 11:25:01;;;;;;;9.13;4.43;;;20.50;68.90;;;;;;5138221;27;20222;-66
2022/05/06 11:27:27;;;;;;;8.20;4.45;;;20.10;70.10;;;;;;5138581;27;20260;-67
2022/05/06 11:29:56;;;;;;;12.23;4.35;;;20.10;71.90;;;;;;5138585;27;20153;-67
2022/05/06 11:32:28;;;;;;;6.25;3.33;;;20.00;71.60;;;;;;5138557;27;20158;-67
2022/05/06 11:35:11;;;;;;;5.78;4.00;;;20.00;72.60;;;;;;5141570;27;20188;-65
2022/05/06 11:37:40;;;;;;;4.97;4.00;;;19.90;72.10;;;;;;5140336;27;20504;-65
2022/05/06 11:40:32;;;;;;;9.25;4.10;;;20.10;70.80;;;;;;5137735;27;20161;-67
2022/05/06 11:43:22;;;;;;;5.40;3.90;;;20.60;70.30;;;;;;5137757;27;20165;-66
2022/05/06 11:48:44;;;;;;;6.93;3.70;;;21.60;66.80;;;;;;5137524;27;20665;-65
2022/05/06 11:51:13;;;;;;;5.43;3.53;;;21.30;63.10;;;;;;5138029;27;20165;-66
2022/05/06 11:53:40;;;;;;;6.25;3.47;;;21.40;63.40;;;;;;5134622;27;20176;-65
2022/05/06 11:56:07;;;;;;;8.43;3.88;;;21.70;61.80;;;;;;5137923;27;20165;-68
2022/05/06 11:58:34;;;;;;;6.93;3.50;;;21.40;60.30;;;;;;5153332;27;20170;-67
2022/05/06 12:01:00;;;;;;;5.35;3.92;;;21.80;60.50;;;;;;5137443;27;20166;-68
2022/05/06 12:03:27;;;;;;;8.07;3.92;;;21.70;60.50;;;;;;5137696;27;20262;-68
2022/05/06 12:06:01;;;;;;;5.18;3.33;;;21.30;60.10;;;;;;5137079;27;20386;-66
2022/05/06 12:08:29;;;;;;;5.43;3.35;;;21.90;61.40;;;;;;5119214;27;20177;-68
2022/05/06 12:11:06;;;;;;;6.20;3.63;;;21.40;61.70;;;;;;5154267;27;20508;-67
2022/05/06 12:13:38;;;;;;;4.70;3.58;;;20.90;62.60;;;;;;5119240;27;20188;-66
2022/05/06 12:16:09;;;;;;;4.75;3.53;;;20.80;63.50;;;;;;5137864;27;20161;-65
2022/05/06 12:18:34;;;;;;;6.63;3.40;;;20.50;64.50;;;;;;5137978;27;20196;-66
2022/05/06 12:21:15;;;;;;;8.13;3.55;;;20.20;63.70;;;;;;5138516;27;20497;-66
2022/05/06 12:23:48;;;;;;;8.50;3.67;;;20.30;63.80;;;;;;5138879;27;20192;-69
2022/05/06 12:26:35;;;;;;;4.80;3.22;;;20.60;63.00;;;;;;5139408;27;20196;-66
2022/05/06 12:29:02;;;;;;;7.57;4.13;;;21.00;60.40;;;;;;5134533;27;20185;-67
2022/05/06 12:31:29;;;;;;;5.90;3.03;;;21.20;60.60;;;;;;5134301;27;20200;-67
2022/05/06 12:34:07;;;;;;;8.57;4.30;;;21.50;59.40;;;;;;5138257;27;20154;-66
2022/05/06 12:36:34;;;;;;;7.13;5.18;;;21.60;58.70;;;;;;5153355;27;20322;-66
2022/05/06 12:38:59;;;;;;;5.85;2.85;;;21.40;57.70;;;;;;5138145;27;20173;-65
2022/05/06 12:41:32;;;;;;;7.47;3.10;;;21.60;56.20;;;;;;5133574;27;20670;-66
2022/05/06 12:44:24;;;;;;;5.00;3.33;;;21.10;56.50;;;;;;5118005;28;20169;-66
2022/05/06 12:46:51;;;;;;;5.47;3.13;;;21.10;57.10;;;;;;5115853;27;20198;-67
2022/05/06 12:52:04;;;;;;;5.68;2.97;;;21.70;55.60;;;;;;5115851;28;20165;-67
2022/05/06 12:54:30;;;;;;;7.53;3.10;;;21.70;54.70;;;;;;5117342;28;20215;-66
2022/05/06 12:56:56;;;;;;;3.75;2.83;;;22.10;55.20;;;;;;5100247;28;20185;-69
2022/05/06 12:59:22;;;;;;;4.47;3.00;;;22.40;54.50;;;;;;5119509;28;20158;-67
2022/05/06 13:01:49;;;;;;;4.95;3.00;;;22.00;53.60;;;;;;5118710;28;20214;-67
2022/05/06 13:04:14;;;;;;;4.57;2.83;;;21.60;53.90;;;;;;5098723;28;20579;-66
2022/05/06 13:06:40;;;;;;;9.13;3.50;;;22.00;54.70;;;;;;5099808;28;20202;-67
2022/05/06 13:09:05;;;;;;;7.25;3.40;;;22.30;54.00;;;;;;5116679;28;20166;-67
2022/05/06 13:11:31;;;;;;;8.13;3.30;;;22.50;56.70;;;;;;5116311;28;20520;-65
2022/05/06 13:13:59;;;;;;;6.90;3.33;;;21.70;56.70;;;;;;5116111;28;20207;-67
2022/05/06 13:16:24;;;;;;;4.10;2.83;;;21.20;57.30;;;;;;5097677;28;20170;-67
2022/05/06 13:18:52;;;;;;;6.30;3.10;;;21.10;57.20;;;;;;5115682;28;20602;-68
2022/05/06 13:21:17;;;;;;;5.30;2.88;;;21.10;57.30;;;;;;5115750;28;20173;-66
2022/05/06 13:23:43;;;;;;;3.55;2.78;;;21.30;57.60;;;;;;5115256;28;20170;-66
2022/05/06 13:26:10;;;;;;;6.07;3.05;;;21.20;56.90;;;;;;5096923;28;20541;-67
2022/05/06 13:28:35;;;;;;;7.47;3.70;;;20.80;57.30;;;;;;5097134;28;20300;-66
2022/05/06 13:31:01;;;;;;;3.50;2.90;;;20.50;57.90;;;;;;5115467;28;20573;-66